Terminal Aerodrome Forecast
Issued by NWS

Home | Current Version | Previous Version | Graphics & Text | Print | Product List | Glossary On
Versions: 1 2 3 4 5 6 7 8 9 10 11 12 13 14 15 16 17 18
000
FTUS43 KFGF 282332
TAFBJI
TAF
KBJI 282332Z 0100/0124 36008KT P6SM SCT030
      TEMPO 0100/0102 BKN030
     FM010200 02005KT P6SM BKN030
     FM011800 33006KT P6SM BKN015=

USA.gov is the U.S. government's official web portal to all federal, state and local government web resources and services.